createdAt,value
2018-06-03T00:00:32.993Z,101062.75
2018-06-03T00:03:08.841Z,101057.98
2018-06-03T00:05:44.482Z,101059.33
2018-06-03T00:08:20.085Z,101057.47
2018-06-03T00:10:56.082Z,101065.56
2018-06-03T00:13:32.083Z,101064.51
2018-06-03T00:16:08.085Z,101066.08
2018-06-03T00:18:44.080Z,101061.81
2018-06-03T00:21:33.301Z,101066.91
2018-06-03T00:24:09.953Z,101064.83
2018-06-03T00:26:46.427Z,101061.73
2018-06-03T00:29:22.071Z,101063.89
2018-06-03T00:31:58.089Z,101061.52
2018-06-03T00:34:34.074Z,101062.54
2018-06-03T00:37:09.841Z,101066.30
2018-06-03T00:39:45.281Z,101056.52
2018-06-03T00:42:21.069Z,101058.70
2018-06-03T00:44:57.087Z,101058.92
2018-06-03T00:47:33.082Z,101051.85
2018-06-03T00:50:09.091Z,101048.94
2018-06-03T00:52:44.931Z,101051.85
2018-06-03T00:55:20.870Z,101047.30
2018-06-03T00:57:57.082Z,101041.57
2018-06-03T01:00:32.992Z,101045.61
2018-06-03T01:03:09.096Z,101033.29
2018-06-03T01:05:44.869Z,101036.68
2018-06-03T01:08:20.524Z,101033.91
2018-06-03T01:10:56.084Z,101035.88
2018-06-03T01:13:31.999Z,101034.41
2018-06-03T01:16:09.210Z,101038.56
2018-06-03T01:18:45.327Z,101042.64
2018-06-03T01:21:21.113Z,101051.45
2018-06-03T01:23:56.851Z,101047.33
2018-06-03T01:26:32.756Z,101046.67
2018-06-03T01:29:08.494Z,101048.84
2018-06-03T01:31:44.106Z,101051.86
2018-06-03T01:34:19.860Z,101060.05
2018-06-03T01:36:55.666Z,101058.14
2018-06-03T01:39:31.502Z,101053.98
2018-06-03T01:42:06.986Z,101056.05
2018-06-03T01:44:42.875Z,101052.94
2018-06-03T01:47:18.334Z,101050.01
2018-06-03T01:49:54.422Z,101040.88
2018-06-03T01:52:30.078Z,101048.70
2018-06-03T01:55:06.099Z,101053.25
2018-06-03T01:57:42.057Z,101053.13
2018-06-03T02:00:18.109Z,101052.20
2018-06-03T02:02:54.065Z,101054.27
2018-06-03T02:05:29.935Z,101055.38
2018-06-03T02:08:05.897Z,101054.00
2018-06-03T02:10:41.487Z,101049.09
2018-06-03T02:13:17.490Z,101046.48
2018-06-03T02:15:53.421Z,101052.59
2018-06-03T02:18:29.092Z,101048.94
2018-06-03T02:21:05.058Z,101052.22
2018-06-03T02:23:41.271Z,101052.52
2018-06-03T02:26:17.074Z,101047.90
2018-06-03T02:28:52.943Z,101053.03
2018-06-03T02:31:29.139Z,101047.73
2018-06-03T02:34:05.259Z,101046.14
2018-06-03T02:36:41.259Z,101042.77
2018-06-03T02:39:17.418Z,101036.51
2018-06-03T02:41:53.358Z,101033.64
2018-06-03T02:44:29.343Z,101041.36
2018-06-03T02:47:06.100Z,101048.03
2018-06-03T02:49:43.213Z,101051.64
2018-06-03T02:52:19.415Z,101049.03
2018-06-03T02:54:55.263Z,101050.62
2018-06-03T02:57:31.254Z,101055.77
2018-06-03T03:00:07.265Z,101052.81
2018-06-03T03:02:43.426Z,101057.63
2018-06-03T03:05:20.671Z,101061.39
2018-06-03T03:07:56.508Z,101057.80
2018-06-03T03:10:32.209Z,101060.21
2018-06-03T03:13:08.075Z,101060.45
2018-06-03T03:15:43.490Z,101067.03
2018-06-03T03:18:19.289Z,101067.40
2018-06-03T03:20:55.081Z,101064.06
2018-06-03T03:23:30.331Z,101070.55
2018-06-03T03:26:05.943Z,101067.89
2018-06-03T03:28:41.701Z,101069.69
2018-06-03T03:31:17.428Z,101068.07
2018-06-03T03:33:53.108Z,101068.83
2018-06-03T03:36:29.328Z,101076.24
2018-06-03T03:39:05.096Z,101076.80
2018-06-03T03:41:40.996Z,101073.64
2018-06-03T03:44:16.419Z,101071.70
2018-06-03T03:46:51.856Z,101074.78
2018-06-03T03:49:29.522Z,101072.89
2018-06-03T03:52:06.310Z,101068.44
2018-06-03T03:54:42.087Z,101066.80
2018-06-03T03:57:17.653Z,101073.72
2018-06-03T03:59:53.271Z,101065.21
2018-06-03T04:02:29.092Z,101068.45
2018-06-03T04:05:04.539Z,101067.31
2018-06-03T04:07:40.209Z,101074.77
2018-06-03T04:10:15.993Z,101073.66
2018-06-03T04:12:51.287Z,101077.69
2018-06-03T04:17:21.219Z,101081.72
2018-06-03T04:19:56.996Z,101076.37
2018-06-03T04:22:32.747Z,101082.12
2018-06-03T04:25:09.432Z,101078.78
2018-06-03T04:27:45.450Z,101078.78
2018-06-03T04:30:21.093Z,101077.94
2018-06-03T04:32:57.071Z,101080.44
2018-06-03T04:35:32.815Z,101075.27
2018-06-03T04:38:48.530Z,101081.17
2018-06-03T04:43:08.215Z,101088.19
2018-06-03T04:45:44.097Z,101089.06
2018-06-03T04:48:19.833Z,101087.58
2018-06-03T04:50:55.438Z,101088.27
2018-06-03T04:53:31.422Z,101089.11
2018-06-03T04:56:07.071Z,101097.65
2018-06-03T04:59:41.774Z,101099.88
2018-06-03T05:02:17.471Z,101102.41
2018-06-03T05:07:17.111Z,101108.30
2018-06-03T05:09:53.080Z,101114.51
2018-06-03T05:12:28.783Z,101112.89
2018-06-03T05:15:04.442Z,101108.06
2018-06-03T05:17:40.302Z,101105.23
2018-06-03T05:20:15.973Z,101109.59
2018-06-03T05:24:50.797Z,101101.28
2018-06-03T05:27:27.069Z,101106.30
2018-06-03T05:30:04.094Z,101105.80
2018-06-03T05:32:39.774Z,101102.00
2018-06-03T05:35:15.303Z,101105.67
2018-06-03T05:37:51.069Z,101105.55
2018-06-03T05:40:27.209Z,101106.08
2018-06-03T05:43:03.087Z,101103.05
2018-06-03T05:45:38.959Z,101102.05
2018-06-03T05:48:15.090Z,101105.77
2018-06-03T05:50:50.857Z,101096.73
2018-06-03T05:53:26.537Z,101099.25
2018-06-03T05:56:04.070Z,101099.77
2018-06-03T05:58:41.062Z,101108.68
2018-06-03T06:01:18.261Z,101107.03
2018-06-03T06:03:54.534Z,101105.19
2018-06-03T06:06:31.519Z,101102.34
2018-06-03T06:09:09.872Z,101096.83
2018-06-03T06:11:47.073Z,101098.20
2018-06-03T06:14:22.843Z,101095.70
2018-06-03T06:16:59.766Z,101097.88
2018-06-03T06:19:37.210Z,101090.87
2018-06-03T06:22:12.209Z,101088.19
2018-06-03T06:24:48.990Z,101093.38
2018-06-03T06:27:26.096Z,101092.06
2018-06-03T06:30:03.071Z,101092.89
2018-06-03T06:32:39.994Z,101091.92
2018-06-03T06:35:16.890Z,101093.94
2018-06-03T06:37:53.806Z,101092.09
2018-06-03T06:42:26.306Z,101083.77
2018-06-03T06:45:03.112Z,101080.93
2018-06-03T06:47:40.269Z,101074.39
2018-06-03T06:50:17.218Z,101074.41
2018-06-03T06:52:54.225Z,101074.92
2018-06-03T06:55:31.774Z,101078.95
2018-06-03T06:58:09.106Z,101075.29
2018-06-03T07:00:46.339Z,101068.95
2018-06-03T07:03:22.862Z,101063.27
2018-06-03T07:05:59.738Z,101070.11
2018-06-03T07:08:36.212Z,101065.94
2018-06-03T07:11:13.882Z,101058.27
2018-06-03T07:13:51.261Z,101052.94
2018-06-03T07:16:28.695Z,101052.26
2018-06-03T07:20:41.295Z,101049.61
2018-06-03T07:23:17.623Z,101046.95
2018-06-03T07:25:55.882Z,101045.27
2018-06-03T07:28:33.220Z,101049.11
2018-06-03T07:31:10.090Z,101049.97
2018-06-03T07:33:47.370Z,101051.80
2018-06-03T07:36:24.313Z,101047.30
2018-06-03T07:39:00.998Z,101047.97
2018-06-03T07:41:38.087Z,101050.97
2018-06-03T07:44:16.070Z,101046.61
2018-06-03T07:46:54.275Z,101046.13
2018-06-03T07:49:31.943Z,101049.44
2018-06-03T07:52:09.268Z,101039.91
2018-06-03T07:54:47.193Z,101043.26
2018-06-03T07:57:24.230Z,101033.56
2018-06-03T08:00:01.273Z,101032.58
2018-06-03T08:04:59.988Z,101022.22
2018-06-03T08:07:37.539Z,101021.70
2018-06-03T08:10:15.753Z,101021.70
2018-06-03T08:12:52.784Z,101018.53
2018-06-03T08:15:29.857Z,101022.55
2018-06-03T08:18:07.268Z,101023.87
2018-06-03T08:20:42.855Z,101026.87
2018-06-03T08:23:19.742Z,101023.87
2018-06-03T08:25:56.093Z,101025.36
2018-06-03T08:29:01.506Z,101019.17
2018-06-03T08:31:37.977Z,101020.02
2018-06-03T08:34:15.859Z,101020.52
2018-06-03T08:36:52.517Z,101016.19
2018-06-03T08:39:30.104Z,101018.86
2018-06-03T08:42:06.511Z,101013.84
2018-06-03T08:44:43.303Z,101015.31
2018-06-03T08:47:20.098Z,101009.83
2018-06-03T08:49:56.827Z,101017.31
2018-06-03T08:52:33.858Z,101017.14
2018-06-03T08:55:11.274Z,101014.61
2018-06-03T08:57:46.414Z,101012.43
2018-06-03T09:00:24.257Z,101022.12
2018-06-03T09:03:01.092Z,101016.12
2018-06-03T09:05:38.744Z,101015.10
2018-06-03T09:08:15.745Z,101015.10
2018-06-03T09:10:52.850Z,101010.78
2018-06-03T09:13:31.278Z,101005.94
2018-06-03T09:16:08.503Z,101006.11
2018-06-03T09:18:45.113Z,101003.27
2018-06-03T09:21:22.121Z,101007.44
2018-06-03T09:23:59.528Z,101006.42
2018-06-03T09:26:36.515Z,101006.24
2018-06-03T09:29:13.892Z,101008.73
2018-06-03T09:31:51.102Z,101004.71
2018-06-03T09:34:28.517Z,101002.84
2018-06-03T09:37:05.898Z,101001.20
2018-06-03T09:39:43.432Z,101001.02
2018-06-03T09:42:20.226Z,101002.70
2018-06-03T09:44:56.994Z,101001.02
2018-06-03T09:47:34.314Z,100998.03
2018-06-03T09:50:11.070Z,100994.17
2018-06-03T09:52:47.507Z,100997.02
2018-06-03T09:55:24.449Z,100995.99
2018-06-03T09:58:02.079Z,100989.66
2018-06-03T10:00:38.768Z,100994.33
2018-06-03T10:03:16.094Z,100989.66
2018-06-03T10:05:53.401Z,100988.95
2018-06-03T10:08:30.750Z,100987.62
2018-06-03T10:11:07.332Z,100989.62
2018-06-03T10:13:44.218Z,100984.13
2018-06-03T10:16:21.121Z,100983.43
2018-06-03T10:18:57.815Z,100978.44
2018-06-03T10:21:35.716Z,100985.41
2018-06-03T10:24:13.212Z,100985.54
2018-06-03T10:26:50.006Z,100989.53
2018-06-03T10:29:27.410Z,100984.33
2018-06-03T10:32:05.090Z,100980.99
2018-06-03T10:34:42.275Z,100980.14
2018-06-03T10:37:19.104Z,100983.95
2018-06-03T10:39:56.587Z,100984.12
2018-06-03T10:42:34.116Z,100982.11
2018-06-03T10:45:10.862Z,100979.94
2018-06-03T10:47:48.087Z,100975.63
2018-06-03T10:50:25.913Z,100977.27
2018-06-03T10:53:02.418Z,100980.50
2018-06-03T10:55:39.089Z,100979.35
2018-06-03T10:58:16.427Z,100978.00
2018-06-03T11:00:53.555Z,100979.63
2018-06-03T11:03:30.533Z,100983.86
2018-06-03T11:06:08.101Z,100980.76
2018-06-03T11:08:45.274Z,100983.02
2018-06-03T11:11:22.794Z,100981.73
2018-06-03T11:13:59.855Z,100987.39
2018-06-03T11:16:36.880Z,100983.88
2018-06-03T11:19:14.095Z,100982.90
2018-06-03T11:21:51.061Z,100981.89
2018-06-03T11:24:28.476Z,100979.88
2018-06-03T11:27:05.541Z,100984.21
2018-06-03T11:29:42.481Z,100986.52
2018-06-03T11:32:19.653Z,100986.03
2018-06-03T11:34:56.100Z,100987.36
2018-06-03T11:37:32.484Z,100987.17
2018-06-03T11:40:09.094Z,100989.84
2018-06-03T11:42:45.752Z,100993.97
2018-06-03T11:45:23.333Z,100995.79
2018-06-03T11:47:58.434Z,100994.95
2018-06-03T11:50:35.546Z,100992.45
2018-06-03T11:53:12.290Z,101000.92
2018-06-03T11:55:49.080Z,101006.42
2018-06-03T11:59:38.351Z,101001.06
2018-06-03T12:02:16.740Z,101004.88
2018-06-03T12:04:54.099Z,101010.98
2018-06-03T12:07:30.821Z,101012.97
2018-06-03T12:10:08.265Z,101007.13
2018-06-03T12:12:45.522Z,101011.77
2018-06-03T12:15:23.041Z,101009.59
2018-06-03T12:18:00.094Z,101010.92
2018-06-03T12:20:36.454Z,101010.41
2018-06-03T12:23:13.092Z,101013.37
2018-06-03T12:25:50.748Z,101017.53
2018-06-03T12:28:27.909Z,101018.47
2018-06-03T12:31:05.003Z,101023.44
2018-06-03T12:33:42.306Z,101013.77
2018-06-03T12:36:19.093Z,101021.81
2018-06-03T12:38:55.774Z,101019.08
2018-06-03T12:41:33.659Z,101015.22
2018-06-03T12:44:10.859Z,101020.94
2018-06-03T12:46:47.847Z,101026.97
2018-06-03T12:49:24.546Z,101022.30
2018-06-03T12:52:01.278Z,101017.30
2018-06-03T12:54:38.087Z,101025.61
2018-06-03T12:57:14.513Z,101027.43
2018-06-03T12:59:51.565Z,101025.61
2018-06-03T13:02:29.497Z,101033.40
2018-06-03T13:05:06.273Z,101037.73
2018-06-03T13:07:41.423Z,101038.18
2018-06-03T13:10:18.515Z,101028.87
2018-06-03T13:12:55.527Z,101032.70
2018-06-03T13:15:33.274Z,101034.67
2018-06-03T13:18:10.828Z,101036.16
2018-06-03T13:20:48.099Z,101035.97
2018-06-03T13:23:24.536Z,101041.65
2018-06-03T13:26:01.295Z,101048.62
2018-06-03T13:28:38.702Z,101051.60
2018-06-03T13:31:15.467Z,101052.41
2018-06-03T13:33:50.415Z,101052.73
2018-06-03T13:36:27.281Z,101050.31
2018-06-03T13:39:04.505Z,101049.23
2018-06-03T13:41:41.770Z,101048.73
2018-06-03T13:44:18.530Z,101054.02
2018-06-03T13:46:55.099Z,101055.60
2018-06-03T13:49:32.522Z,101055.60
2018-06-03T13:52:09.872Z,101059.59
2018-06-03T13:54:47.268Z,101052.69
2018-06-03T13:57:23.835Z,101060.45
2018-06-03T14:00:01.099Z,101055.12
2018-06-03T14:02:37.559Z,101055.04
2018-06-03T14:05:15.985Z,101056.24
2018-06-03T14:07:52.882Z,101061.13
2018-06-03T14:10:30.211Z,101060.69
2018-06-03T14:13:06.470Z,101053.76
2018-06-03T14:15:43.089Z,101054.81
2018-06-03T14:18:21.097Z,101060.48
2018-06-03T14:20:58.295Z,101062.17
2018-06-03T14:23:36.279Z,101060.89
2018-06-03T14:26:13.091Z,101063.78
2018-06-03T14:28:50.529Z,101058.88
2018-06-03T14:31:27.490Z,101060.64
2018-06-03T14:34:04.095Z,101062.12
2018-06-03T14:36:41.069Z,101056.12
2018-06-03T14:39:18.487Z,101055.91
2018-06-03T14:41:55.827Z,101056.80
2018-06-03T14:44:33.139Z,101061.28
2018-06-03T14:47:10.208Z,101062.12
2018-06-03T14:49:47.065Z,101057.34
2018-06-03T14:52:23.417Z,101054.61
2018-06-03T14:55:01.262Z,101056.47
2018-06-03T14:57:38.085Z,101056.67
2018-06-03T15:00:14.563Z,101054.70
2018-06-03T15:02:52.010Z,101050.91
2018-06-03T15:05:29.152Z,101052.52
2018-06-03T15:08:05.875Z,101046.44
2018-06-03T15:10:42.821Z,101049.27
2018-06-03T15:13:19.450Z,101045.00
2018-06-03T15:18:10.438Z,101048.26
2018-06-03T15:20:49.714Z,101037.63
2018-06-03T15:23:27.066Z,101028.64
2018-06-03T15:26:04.073Z,101030.01
2018-06-03T15:28:40.866Z,101029.37
2018-06-03T15:31:18.103Z,101032.91
2018-06-03T15:33:55.209Z,101033.63
2018-06-03T15:36:32.208Z,101026.45
2018-06-03T15:39:11.097Z,101022.34
2018-06-03T15:41:48.298Z,101020.49
2018-06-03T15:44:25.402Z,101017.34
2018-06-03T15:47:02.884Z,101020.36
2018-06-03T15:49:39.555Z,101024.55
2018-06-03T15:52:16.022Z,101029.07
2018-06-03T15:54:53.120Z,101027.45
2018-06-03T15:57:29.805Z,101033.33
2018-06-03T16:00:07.427Z,101036.51
2018-06-03T16:02:43.900Z,101035.38
2018-06-03T16:05:21.233Z,101038.39
2018-06-03T16:07:58.681Z,101036.06
2018-06-03T16:10:35.887Z,101032.27
2018-06-03T16:13:13.321Z,101021.33
2018-06-03T16:15:50.310Z,101028.11
2018-06-03T16:18:28.127Z,101018.31
2018-06-03T16:21:05.124Z,101025.71
2018-06-03T16:23:42.450Z,101023.56
2018-06-03T16:26:20.241Z,101023.95
2018-06-03T16:28:57.880Z,101027.49
2018-06-03T16:31:34.822Z,101024.38
2018-06-03T16:34:11.286Z,101026.55
2018-06-03T16:36:49.100Z,101017.94
2018-06-03T16:39:26.222Z,101023.48
2018-06-03T16:42:03.526Z,101023.52
2018-06-03T16:44:41.103Z,101020.88
2018-06-03T16:47:18.682Z,101017.07
2018-06-03T16:49:56.298Z,101007.28
2018-06-03T16:52:33.435Z,101009.16
2018-06-03T16:55:10.102Z,101008.53
2018-06-03T16:57:46.850Z,101004.23
2018-06-03T17:00:23.735Z,101012.08
2018-06-03T17:03:00.684Z,101007.97
2018-06-03T17:05:38.773Z,101010.00
2018-06-03T17:08:16.106Z,101008.20
2018-06-03T17:10:52.811Z,101010.75
2018-06-03T17:13:30.135Z,101010.95
2018-06-03T17:16:07.014Z,101005.14
2018-06-03T17:18:44.078Z,101004.67
2018-06-03T17:21:20.542Z,101003.53
2018-06-03T17:23:58.303Z,101011.89
2018-06-03T17:26:35.523Z,101015.60
2018-06-03T17:29:12.382Z,101017.63
2018-06-03T17:31:49.276Z,101015.67
2018-06-03T17:34:26.450Z,101015.19
2018-06-03T17:37:04.463Z,101018.05
2018-06-03T17:39:41.322Z,101020.23
2018-06-03T17:42:17.099Z,101020.55
2018-06-03T17:44:52.882Z,101020.07
2018-06-03T17:47:28.498Z,101018.92
2018-06-03T17:50:04.104Z,101013.09
2018-06-03T17:52:39.985Z,101008.11
2018-06-03T17:55:17.692Z,101006.64
2018-06-03T17:57:53.904Z,101003.83
2018-06-03T18:00:30.291Z,101004.84
2018-06-03T18:03:08.284Z,100997.50
2018-06-03T18:05:44.477Z,101003.19
2018-06-03T18:08:20.434Z,101004.84
2018-06-03T18:10:56.334Z,101005.00
2018-06-03T18:13:32.518Z,101010.20
2018-06-03T18:16:08.422Z,101009.87
2018-06-03T18:18:46.061Z,101010.53
2018-06-03T18:21:22.827Z,101013.19
2018-06-03T18:27:34.098Z,101017.56
2018-06-03T18:30:10.077Z,101020.88
2018-06-03T18:32:47.079Z,101017.55
2018-06-03T18:35:22.781Z,101016.70
2018-06-03T18:37:58.470Z,101015.84
2018-06-03T18:40:34.092Z,101022.37
2018-06-03T18:43:10.122Z,101012.16
2018-06-03T18:45:47.456Z,101013.82
2018-06-03T18:48:23.127Z,101008.14
2018-06-03T18:50:58.843Z,101007.13
2018-06-03T18:53:34.297Z,101007.47
2018-06-03T18:56:10.070Z,101007.47
2018-06-03T18:58:45.574Z,101007.78
2018-06-03T19:01:21.112Z,101000.95
2018-06-03T19:03:56.538Z,101001.26
2018-06-03T19:06:32.074Z,101001.77
2018-06-03T19:09:09.280Z,101000.06
2018-06-03T19:11:43.087Z,100995.27
2018-06-03T19:17:01.214Z,100993.72
2018-06-03T19:19:37.759Z,100987.52
2018-06-03T19:22:14.422Z,100982.30
2018-06-03T19:24:50.078Z,100977.92
2018-06-03T19:27:26.252Z,100978.55
2018-06-03T19:30:02.088Z,100972.19
2018-06-03T19:32:37.789Z,100968.11
2018-06-03T19:35:14.518Z,100960.52
2018-06-03T19:37:50.130Z,100970.05
2018-06-03T19:40:25.853Z,100966.15
2018-06-03T19:43:02.551Z,100960.95
2018-06-03T19:45:38.078Z,100964.09
2018-06-03T19:48:13.750Z,100965.55
2018-06-03T19:50:49.300Z,100953.45
2018-06-03T19:53:25.361Z,100964.78
2018-06-03T19:56:01.238Z,100963.06
2018-06-03T19:58:38.333Z,100961.18
2018-06-03T20:01:14.246Z,100963.97
2018-06-03T20:03:50.828Z,100962.93
2018-06-03T20:06:26.607Z,100958.70
2018-06-03T20:09:03.952Z,100955.83
2018-06-03T20:11:39.443Z,100954.09
2018-06-03T20:14:15.111Z,100951.31
2018-06-03T20:16:50.665Z,100952.75
2018-06-03T20:19:26.281Z,100953.49
2018-06-03T20:21:59.851Z,100953.23
2018-06-03T20:24:35.532Z,100956.66
2018-06-03T20:27:12.398Z,100951.91
2018-06-03T20:29:48.861Z,100950.34
2018-06-03T20:32:24.469Z,100945.57
2018-06-03T20:35:00.210Z,100936.77
2018-06-03T20:37:35.967Z,100936.64
2018-06-03T20:40:12.283Z,100942.63
2018-06-03T20:42:45.816Z,100930.43
2018-06-03T20:45:22.205Z,100932.34
2018-06-03T20:47:57.758Z,100925.23
2018-06-03T20:50:33.207Z,100922.32
2018-06-03T20:53:10.496Z,100926.08
2018-06-03T20:55:45.995Z,100918.73
2018-06-03T20:58:21.515Z,100920.60
2018-06-03T21:00:57.267Z,100916.63
2018-06-03T21:03:32.974Z,100916.83
2018-06-03T21:06:10.256Z,100921.72
2018-06-03T21:08:45.834Z,100925.03
2018-06-03T21:11:21.327Z,100928.08
2018-06-03T21:13:56.752Z,100921.03
2018-06-03T21:16:32.405Z,100919.53
2018-06-03T21:19:05.991Z,100911.20
2018-06-03T21:21:41.468Z,100912.39
2018-06-03T21:24:17.205Z,100908.19
2018-06-03T21:26:53.067Z,100907.04
2018-06-03T21:29:28.531Z,100906.06
2018-06-03T21:32:04.088Z,100909.09
2018-06-03T21:34:39.755Z,100907.59
2018-06-03T21:37:15.299Z,100903.08
2018-06-03T21:39:52.959Z,100906.61
2018-06-03T21:42:28.510Z,100911.30
2018-06-03T21:45:04.270Z,100911.17
2018-06-03T21:47:38.003Z,100916.58
2018-06-03T21:50:15.096Z,100920.64
2018-06-03T21:52:52.483Z,100911.45
2018-06-03T21:55:28.600Z,100915.50
2018-06-03T21:58:04.214Z,100913.01
2018-06-03T22:00:40.927Z,100918.84
2018-06-03T22:03:18.264Z,100919.76
2018-06-03T22:05:53.939Z,100926.51
2018-06-03T22:08:30.095Z,100926.62
2018-06-03T22:11:07.282Z,100925.60
2018-06-03T22:13:44.095Z,100923.86
2018-06-03T22:16:19.708Z,100926.38
2018-06-03T22:18:55.995Z,100923.25
2018-06-03T22:21:31.466Z,100925.76
2018-06-03T22:24:07.210Z,100920.27
2018-06-03T22:26:44.507Z,100915.71
2018-06-03T22:29:20.062Z,100923.25
2018-06-03T22:31:57.385Z,100922.45
2018-06-03T22:34:31.011Z,100920.67
2018-06-03T22:37:06.462Z,100913.94
2018-06-03T22:39:41.994Z,100917.58
2018-06-03T22:42:54.523Z,100916.73
2018-06-03T22:46:22.764Z,100920.89
2018-06-03T22:48:59.082Z,100925.55
2018-06-03T22:51:34.999Z,100923.08
2018-06-03T22:54:13.499Z,100926.39
2018-06-03T22:57:47.069Z,100925.77
2018-06-03T23:00:30.855Z,100933.65
2018-06-03T23:03:11.996Z,100925.45
2018-06-03T23:05:48.113Z,100931.78
2018-06-03T23:08:24.082Z,100931.34
2018-06-03T23:11:01.058Z,100930.43
2018-06-03T23:13:38.306Z,100938.52
2018-06-03T23:16:14.023Z,100933.52
2018-06-03T23:18:50.060Z,100931.55
2018-06-03T23:21:26.091Z,100936.73
2018-06-03T23:24:03.078Z,100933.23
2018-06-03T23:26:39.084Z,100931.05
2018-06-03T23:29:16.100Z,100926.16
2018-06-03T23:31:53.298Z,100925.54
2018-06-03T23:34:29.856Z,100929.26
2018-06-03T23:37:05.994Z,100931.95
2018-06-03T23:39:41.785Z,100930.59
2018-06-03T23:42:18.083Z,100932.16
2018-06-03T23:44:53.959Z,100930.08
2018-06-03T23:47:30.075Z,100928.34
2018-06-03T23:50:06.089Z,100921.70
2018-06-03T23:52:43.076Z,100920.03
2018-06-03T23:55:19.071Z,100926.38
2018-06-03T23:57:55.085Z,100927.72
